Time;durP1;ratioP1;P1;durP2;ratioP2;P2;SDS_P1;SDS_P2;PMS_P1;PMS_P2;Temp;Humidity;BMP_temperature;BMP_pressure;BME280_temperature;BME280_humidity;BME280_pressure;Samples;Min_cycle;Max_cycle;Signal;HPM_P1;HPM_P2
2021/07/15 00:01:40;;;;;;;;;;;24.30;62.20;;;;;;5131793;27;19927;-58
2021/07/15 00:04:07;;;;;;;;;;;24.30;61.50;;;;;;5130761;27;19976;-58
2021/07/15 00:06:35;;;;;;;;;;;24.20;61.30;;;;;;5130593;27;19923;-58
2021/07/15 00:09:03;;;;;;;;;;;24.20;61.40;;;;;;5132148;27;20348;-58
2021/07/15 00:11:32;;;;;;;;;;;24.20;61.40;;;;;;5133016;27;19965;-58
2021/07/15 00:13:59;;;;;;;;;;;24.20;61.40;;;;;;5122807;27;19957;-58
2021/07/15 00:16:26;;;;;;;;;;;24.20;61.40;;;;;;5125491;27;20010;-58
2021/07/15 00:18:53;;;;;;;;;;;24.20;61.40;;;;;;5131931;27;19923;-58
2021/07/15 00:21:21;;;;;;;;;;;24.20;61.30;;;;;;5132782;27;19982;-58
2021/07/15 00:23:49;;;;;;;;;;;24.20;61.20;;;;;;5133278;27;20371;-58
2021/07/15 00:26:20;;;;;;;;;;;24.20;61.20;;;;;;5132882;27;19969;-58
2021/07/15 00:28:47;;;;;;;;;;;24.20;61.10;;;;;;5132659;27;19934;-58
2021/07/15 00:31:15;;;;;;;;;;;24.20;61.20;;;;;;5131756;27;19976;-57
2021/07/15 00:33:42;;;;;;;;;;;24.20;61.90;;;;;;5131375;27;19923;-58
2021/07/15 00:36:09;;;;;;;;;;;24.20;61.20;;;;;;5129488;27;20464;-58
2021/07/15 00:38:36;;;;;;;;;;;24.20;61.10;;;;;;5132692;27;20391;-58
2021/07/15 00:41:04;;;;;;;;;;;24.20;61.00;;;;;;5131804;27;19937;-58
2021/07/15 00:43:31;;;;;;;;;;;24.20;61.20;;;;;;5131751;27;19972;-58
2021/07/15 00:45:58;;;;;;;;;;;24.20;61.10;;;;;;5113436;28;19928;-58
2021/07/15 00:48:25;;;;;;;;;;;24.20;61.00;;;;;;5131480;27;19931;-58
2021/07/15 00:50:53;;;;;;;;;;;24.10;60.80;;;;;;5133258;27;20450;-58
2021/07/15 00:53:20;;;;;;;;;;;24.10;60.90;;;;;;5132706;27;19927;-58
2021/07/15 00:55:47;;;;;;;;;;;24.10;60.90;;;;;;5130884;27;19938;-58
2021/07/15 00:58:15;;;;;;;;;;;24.10;60.90;;;;;;5131056;27;19976;-58
2021/07/15 01:00:45;;;;;;;;;;;24.10;60.80;;;;;;5117180;28;19924;-58
2021/07/15 01:03:12;;;;;;;;;;;24.10;60.80;;;;;;5129763;27;19976;-57
2021/07/15 01:05:41;;;;;;;;;;;24.10;60.80;;;;;;5130070;28;19943;-57
2021/07/15 01:08:09;;;;;;;;;;;24.10;60.70;;;;;;5118521;28;20283;-58
2021/07/15 01:10:40;;;;;;;;;;;24.10;60.80;;;;;;5126301;27;19972;-57
2021/07/15 01:13:16;;;;;;;;;;;24.10;60.90;;;;;;5135311;27;19923;-58
2021/07/15 01:16:02;;;;;;;;;;;24.10;60.90;;;;;;5125256;27;19973;-58
2021/07/15 01:18:44;;;;;;;;;;;24.10;60.60;;;;;;5120088;27;19924;-58
2021/07/15 01:21:30;;;;;;;;;;;24.10;60.90;;;;;;5134916;27;19928;-58
2021/07/15 01:24:09;;;;;;;;;;;24.10;60.80;;;;;;5134441;27;19924;-58
2021/07/15 01:27:02;;;;;;;;;;;24.10;60.80;;;;;;5135556;27;20350;-58
2021/07/15 01:29:29;;;;;;;;;;;24.10;60.40;;;;;;5131519;27;20276;-58
2021/07/15 01:31:59;;;;;;;;;;;24.10;60.40;;;;;;5135063;27;20379;-58
2021/07/15 01:34:27;;;;;;;;;;;24.10;60.30;;;;;;5136527;27;19968;-58
2021/07/15 01:36:55;;;;;;;;;;;24.10;60.30;;;;;;5135956;27;19968;-58
2021/07/15 01:39:28;;;;;;;;;;;24.10;60.20;;;;;;5135833;27;19927;-58
2021/07/15 01:41:57;;;;;;;;;;;24.10;60.10;;;;;;5133410;27;19927;-58
2021/07/15 01:44:27;;;;;;;;;;;24.10;60.10;;;;;;5136038;27;19976;-58
2021/07/15 01:46:54;;;;;;;;;;;24.00;60.00;;;;;;5135053;27;19928;-58
2021/07/15 01:49:23;;;;;;;;;;;24.00;60.00;;;;;;5134205;27;19927;-58
2021/07/15 01:51:51;;;;;;;;;;;24.00;60.00;;;;;;5135952;27;19931;-58
2021/07/15 01:54:19;;;;;;;;;;;24.00;60.00;;;;;;5124292;27;20434;-58
2021/07/15 01:56:47;;;;;;;;;;;24.00;60.00;;;;;;5130484;27;19924;-58
2021/07/15 01:59:17;;;;;;;;;;;24.00;60.10;;;;;;5124665;27;19924;-58
2021/07/15 02:01:46;;;;;;;;;;;24.00;60.10;;;;;;5128865;27;19953;-58
2021/07/15 02:04:14;;;;;;;;;;;24.00;60.10;;;;;;5133091;27;19928;-58
2021/07/15 02:06:42;;;;;;;;;;;24.00;60.10;;;;;;5136936;27;19976;-58
2021/07/15 02:09:09;;;;;;;;;;;24.00;60.20;;;;;;5133381;27;19964;-58
2021/07/15 02:11:37;;;;;;;;;;;24.00;60.20;;;;;;5134437;27;20350;-58
2021/07/15 02:14:07;;;;;;;;;;;24.10;60.30;;;;;;5129739;27;20415;-58
2021/07/15 02:16:35;;;;;;;;;;;24.10;60.20;;;;;;5118223;27;19945;-58
2021/07/15 02:19:04;;;;;;;;;;;24.10;60.20;;;;;;5120755;27;19946;-58
2021/07/15 02:21:32;;;;;;;;;;;24.10;61.00;;;;;;5133840;27;19962;-57
2021/07/15 02:23:59;;;;;;;;;;;24.00;60.20;;;;;;5129045;27;19977;-58
2021/07/15 02:26:27;;;;;;;;;;;24.10;60.30;;;;;;5121675;27;19923;-58
2021/07/15 02:28:54;;;;;;;;;;;24.10;60.30;;;;;;5134005;27;19923;-58
2021/07/15 02:31:24;;;;;;;;;;;24.10;60.30;;;;;;5135199;27;19924;-58
2021/07/15 02:33:56;;;;;;;;;;;24.10;60.40;;;;;;5133050;27;19992;-58
2021/07/15 02:36:25;;;;;;;;;;;24.10;60.30;;;;;;5131911;27;20450;-58
2021/07/15 02:38:53;;;;;;;;;;;24.10;60.40;;;;;;5133687;27;19924;-58
2021/07/15 02:41:20;;;;;;;;;;;24.10;60.40;;;;;;5135166;27;19964;-57
2021/07/15 02:43:47;;;;;;;;;;;24.00;60.20;;;;;;5134943;27;19970;-58
2021/07/15 02:46:14;;;;;;;;;;;24.00;60.20;;;;;;5135489;27;20275;-57
2021/07/15 02:48:41;;;;;;;;;;;24.10;60.30;;;;;;5136398;27;19963;-58
2021/07/15 02:51:09;;;;;;;;;;;24.00;60.10;;;;;;5134052;27;19991;-58
2021/07/15 02:53:36;;;;;;;;;;;24.10;60.20;;;;;;5117924;27;19924;-58
2021/07/15 02:56:10;;;;;;;;;;;24.10;60.20;;;;;;5129894;27;19974;-58
2021/07/15 02:58:58;;;;;;;;;;;24.10;60.10;;;;;;5133025;27;19959;-58
2021/07/15 03:01:26;;;;;;;;;;;24.10;60.00;;;;;;5115122;27;19931;-58
2021/07/15 03:03:53;;;;;;;;;;;24.10;60.00;;;;;;5133517;27;20002;-57
2021/07/15 03:06:24;;;;;;;;;;;24.10;60.00;;;;;;5134671;27;19928;-57
2021/07/15 03:08:56;;;;;;;;;;;24.10;60.00;;;;;;5134144;27;19923;-58
2021/07/15 03:11:28;;;;;;;;;;;24.10;60.00;;;;;;5134208;27;19930;-58
2021/07/15 03:13:56;;;;;;;;;;;24.10;60.00;;;;;;5132370;27;19988;-58
2021/07/15 03:16:24;;;;;;;;;;;24.10;60.00;;;;;;5114857;27;19923;-58
2021/07/15 03:18:52;;;;;;;;;;;24.00;59.90;;;;;;5133034;27;19923;-58
2021/07/15 03:21:21;;;;;;;;;;;24.00;60.00;;;;;;5132962;27;20045;-58
2021/07/15 03:23:49;;;;;;;;;;;24.00;59.90;;;;;;5135117;27;19928;-58
2021/07/15 03:26:16;;;;;;;;;;;24.00;59.90;;;;;;5134288;27;20289;-58
2021/07/15 03:28:44;;;;;;;;;;;24.00;59.90;;;;;;5132445;27;20434;-58
2021/07/15 03:31:11;;;;;;;;;;;24.00;60.00;;;;;;5131451;27;19927;-58
2021/07/15 03:33:40;;;;;;;;;;;24.00;60.00;;;;;;5132244;27;19969;-58
2021/07/15 03:36:07;;;;;;;;;;;24.00;60.00;;;;;;5132209;27;20227;-58
2021/07/15 03:38:37;;;;;;;;;;;24.00;60.00;;;;;;5133792;27;19972;-58
2021/07/15 03:41:04;;;;;;;;;;;24.00;60.00;;;;;;5128291;27;19969;-58
2021/07/15 03:43:33;;;;;;;;;;;24.00;59.90;;;;;;5119447;27;19923;-58
2021/07/15 03:46:01;;;;;;;;;;;24.00;59.90;;;;;;5131006;27;19931;-58
2021/07/15 03:48:29;;;;;;;;;;;24.00;59.90;;;;;;5116274;27;19931;-59
2021/07/15 03:51:00;;;;;;;;;;;24.00;59.80;;;;;;5132007;27;19976;-57
2021/07/15 03:53:28;;;;;;;;;;;24.00;59.80;;;;;;5099043;27;20337;-57
2021/07/15 03:55:56;;;;;;;;;;;24.00;59.80;;;;;;5130670;27;19973;-58
2021/07/15 03:58:24;;;;;;;;;;;24.00;59.80;;;;;;5134550;27;19931;-58
2021/07/15 04:00:51;;;;;;;;;;;24.00;59.80;;;;;;5134612;27;19928;-58
2021/07/15 04:03:20;;;;;;;;;;;24.00;59.80;;;;;;5134519;27;19923;-58
2021/07/15 04:05:49;;;;;;;;;;;24.00;59.70;;;;;;5133622;27;20074;-58
2021/07/15 04:08:18;;;;;;;;;;;24.00;59.70;;;;;;5134116;27;20403;-58
2021/07/15 04:10:46;;;;;;;;;;;24.10;59.80;;;;;;5131799;27;19931;-58
2021/07/15 04:13:13;;;;;;;;;;;24.10;59.80;;;;;;5132068;27;19976;-58
2021/07/15 04:15:59;;;;;;;;;;;24.10;59.70;;;;;;5132034;27;19970;-58
2021/07/15 04:18:28;;;;;;;;;;;24.10;59.60;;;;;;5132265;27;19923;-58
2021/07/15 04:20:56;;;;;;;;;;;24.10;59.60;;;;;;5130766;27;19930;-58
2021/07/15 04:23:23;;;;;;;;;;;24.10;60.20;;;;;;5131445;27;19923;-58
2021/07/15 04:25:51;;;;;;;;;;;24.10;59.50;;;;;;5131976;27;20279;-59
2021/07/15 04:28:19;;;;;;;;;;;24.10;59.50;;;;;;5134177;27;19968;-59
2021/07/15 04:31:09;;;;;;;;;;;24.10;59.50;;;;;;5134187;27;19971;-59
2021/07/15 04:33:36;;;;;;;;;;;24.10;59.40;;;;;;5116869;27;20046;-59
2021/07/15 04:36:04;;;;;;;;;;;24.10;59.40;;;;;;5100859;28;19999;-59
2021/07/15 04:38:31;;;;;;;;;;;24.20;59.40;;;;;;5129010;27;20295;-58
2021/07/15 04:40:59;;;;;;;;;;;24.20;59.30;;;;;;5131538;27;19976;-58
2021/07/15 04:43:28;;;;;;;;;;;24.20;59.90;;;;;;5130372;27;20434;-59
2021/07/15 04:45:55;;;;;;;;;;;24.30;59.30;;;;;;5131041;27;19923;-59
2021/07/15 04:48:22;;;;;;;;;;;24.30;59.20;;;;;;5131294;27;20006;-58
2021/07/15 04:50:50;;;;;;;;;;;24.40;59.20;;;;;;5131331;27;19927;-60
2021/07/15 04:53:19;;;;;;;;;;;24.40;59.00;;;;;;5131152;27;19927;-59
2021/07/15 04:55:47;;;;;;;;;;;24.40;58.90;;;;;;5129871;27;19923;-58
2021/07/15 04:58:14;;;;;;;;;;;24.40;58.90;;;;;;5132949;27;19962;-58
2021/07/15 05:00:41;;;;;;;;;;;24.50;58.80;;;;;;5130194;27;19927;-58
2021/07/15 05:03:08;;;;;;;;;;;24.60;58.80;;;;;;5130817;27;19931;-59
2021/07/15 05:05:35;;;;;;;;;;;24.60;58.70;;;;;;5130172;27;19972;-59
2021/07/15 05:08:02;;;;;;;;;;;24.60;58.60;;;;;;5132629;27;19923;-59
2021/07/15 05:10:29;;;;;;;;;;;24.60;58.40;;;;;;5130709;28;19924;-58
2021/07/15 05:12:56;;;;;;;;;;;24.70;58.40;;;;;;5131462;28;19927;-59
2021/07/15 05:15:23;;;;;;;;;;;24.70;58.20;;;;;;5131930;28;19931;-60
2021/07/15 05:17:50;;;;;;;;;;;24.80;58.20;;;;;;5132987;28;19930;-59
2021/07/15 05:20:18;;;;;;;;;;;24.80;58.20;;;;;;5115469;28;19931;-58
2021/07/15 05:22:45;;;;;;;;;;;24.90;58.20;;;;;;5114326;28;19953;-58
2021/07/15 05:25:12;;;;;;;;;;;24.90;58.10;;;;;;5114167;28;20280;-58
2021/07/15 05:27:39;;;;;;;;;;;24.90;58.00;;;;;;5131643;28;20108;-58
2021/07/15 05:30:06;;;;;;;;;;;24.90;57.90;;;;;;5116854;28;19924;-58
2021/07/15 05:32:34;;;;;;;;;;;24.90;57.90;;;;;;5129833;28;20002;-58
2021/07/15 05:35:01;;;;;;;;;;;25.00;57.90;;;;;;5131488;28;19927;-58
2021/07/15 05:37:28;;;;;;;;;;;25.00;57.80;;;;;;5113851;28;20305;-59
2021/07/15 05:39:55;;;;;;;;;;;25.00;57.60;;;;;;5125588;28;19924;-58
2021/07/15 05:42:22;;;;;;;;;;;25.10;57.60;;;;;;5129874;28;19923;-58
2021/07/15 05:44:49;;;;;;;;;;;25.10;57.60;;;;;;5130749;28;19966;-58
2021/07/15 05:47:16;;;;;;;;;;;25.20;57.50;;;;;;5132024;28;19923;-59
2021/07/15 05:49:44;;;;;;;;;;;25.20;57.40;;;;;;5130465;28;19971;-58
2021/07/15 05:52:12;;;;;;;;;;;25.30;57.20;;;;;;5130799;28;20063;-59
2021/07/15 05:54:39;;;;;;;;;;;25.30;57.30;;;;;;5132992;28;20443;-59
2021/07/15 05:57:07;;;;;;;;;;;25.30;57.10;;;;;;5132681;27;19924;-59
2021/07/15 05:59:34;;;;;;;;;;;25.30;57.10;;;;;;5137107;27;19924;-59
2021/07/15 06:02:01;;;;;;;;;;;25.30;57.00;;;;;;5134026;27;19984;-59
2021/07/15 06:04:28;;;;;;;;;;;25.30;57.10;;;;;;5136992;27;19923;-59
2021/07/15 06:06:56;;;;;;;;;;;25.30;57.10;;;;;;5133367;27;19931;-59
2021/07/15 06:09:23;;;;;;;;;;;25.40;57.40;;;;;;5134603;27;19953;-59
2021/07/15 06:11:49;;;;;;;;;;;25.40;57.10;;;;;;5115783;27;19970;-59
2021/07/15 06:14:17;;;;;;;;;;;25.30;57.10;;;;;;5135685;27;19923;-59
2021/07/15 06:16:44;;;;;;;;;;;25.30;57.30;;;;;;5134321;27;19972;-60
2021/07/15 06:19:11;;;;;;;;;;;25.30;57.30;;;;;;5134491;27;19971;-60
2021/07/15 06:21:38;;;;;;;;;;;25.30;57.50;;;;;;5133444;27;19976;-59
2021/07/15 06:24:05;;;;;;;;;;;25.30;57.50;;;;;;5133105;27;19924;-60
2021/07/15 06:26:33;;;;;;;;;;;25.30;57.20;;;;;;5134012;27;19923;-59
2021/07/15 06:29:00;;;;;;;;;;;25.30;57.00;;;;;;5132531;27;20379;-59
2021/07/15 06:31:26;;;;;;;;;;;25.30;56.90;;;;;;5131985;27;19923;-60
2021/07/15 06:33:54;;;;;;;;;;;25.30;56.90;;;;;;5136300;27;19924;-59
2021/07/15 06:36:21;;;;;;;;;;;25.30;56.90;;;;;;5104461;28;20334;-60
2021/07/15 06:38:48;;;;;;;;;;;25.30;56.70;;;;;;5127140;27;19931;-60
2021/07/15 06:41:16;;;;;;;;;;;25.20;56.40;;;;;;5133482;27;20436;-59
2021/07/15 06:43:43;;;;;;;;;;;25.30;56.50;;;;;;5133684;27;20264;-59
2021/07/15 06:46:11;;;;;;;;;;;25.20;56.50;;;;;;5133640;27;19977;-59
2021/07/15 06:48:39;;;;;;;;;;;25.20;56.40;;;;;;5133416;27;19952;-61
2021/07/15 06:51:06;;;;;;;;;;;25.20;56.30;;;;;;5133708;27;19923;-60
2021/07/15 06:53:33;;;;;;;;;;;25.20;56.50;;;;;;5129568;27;20376;-59
2021/07/15 06:56:01;;;;;;;;;;;25.20;56.50;;;;;;5098242;28;19963;-59
2021/07/15 06:58:28;;;;;;;;;;;25.20;56.60;;;;;;5119924;27;19924;-60
2021/07/15 07:00:56;;;;;;;;;;;25.20;56.70;;;;;;5132353;27;19990;-60
2021/07/15 07:03:24;;;;;;;;;;;25.20;56.60;;;;;;5134437;27;20324;-59
2021/07/15 07:05:52;;;;;;;;;;;25.20;56.30;;;;;;5131878;27;20376;-60
2021/07/15 07:08:19;;;;;;;;;;;25.20;56.10;;;;;;5134864;27;24800;-59
2021/07/15 07:10:46;;;;;;;;;;;25.20;56.00;;;;;;5116870;27;19991;-59
2021/07/15 07:13:13;;;;;;;;;;;25.10;56.20;;;;;;5133917;27;19923;-59
2021/07/15 07:15:40;;;;;;;;;;;25.20;56.30;;;;;;5134829;27;19929;-59
2021/07/15 07:18:07;;;;;;;;;;;25.20;56.60;;;;;;5134016;27;19928;-59
2021/07/15 07:20:34;;;;;;;;;;;25.20;56.60;;;;;;5117209;27;19923;-59
2021/07/15 07:23:02;;;;;;;;;;;25.10;56.90;;;;;;5133911;27;19927;-61
2021/07/15 07:25:29;;;;;;;;;;;25.20;57.70;;;;;;5133950;27;19923;-61
2021/07/15 07:27:56;;;;;;;;;;;25.10;57.40;;;;;;5131798;27;19923;-63
2021/07/15 07:30:23;;;;;;;;;;;25.10;58.10;;;;;;5132665;27;19966;-62
2021/07/15 07:32:50;;;;;;;;;;;25.10;57.90;;;;;;5131171;27;20374;-62
2021/07/15 07:35:17;;;;;;;;;;;25.10;58.50;;;;;;5130301;27;19930;-63
2021/07/15 07:37:45;;;;;;;;;;;25.10;58.80;;;;;;5127052;27;19952;-61
2021/07/15 07:40:12;;;;;;;;;;;25.10;58.80;;;;;;5115836;27;19931;-58
2021/07/15 07:42:40;;;;;;;;;;;25.10;58.90;;;;;;5122782;27;19923;-61
2021/07/15 07:45:10;;;;;;;;;;;25.20;59.70;;;;;;5125503;27;19930;-59
2021/07/15 07:47:38;;;;;;;;;;;25.20;59.60;;;;;;5122335;27;20375;-59
2021/07/15 07:50:06;;;;;;;;;;;25.20;58.60;;;;;;5133144;27;19924;-59
2021/07/15 07:52:33;;;;;;;;;;;25.20;58.50;;;;;;5134290;27;19923;-63
2021/07/15 07:55:00;;;;;;;;;;;25.30;57.90;;;;;;5131222;27;19931;-62
2021/07/15 07:57:33;;;;;;;;;;;25.30;58.70;;;;;;5133077;27;19976;-59
2021/07/15 08:00:01;;;;;;;;;;;25.30;59.30;;;;;;5132173;27;20306;-58
2021/07/15 08:02:28;;;;;;;;;;;25.40;58.80;;;;;;5132701;27;19931;-54
2021/07/15 08:04:55;;;;;;;;;;;25.40;58.50;;;;;;5132137;27;19977;-60
2021/07/15 08:07:22;;;;;;;;;;;25.40;58.30;;;;;;5131727;27;19932;-57
2021/07/15 08:09:49;;;;;;;;;;;25.50;58.50;;;;;;5132656;27;19946;-57
2021/07/15 08:12:17;;;;;;;;;;;25.50;58.50;;;;;;5132263;27;19953;-60
2021/07/15 08:14:44;;;;;;;;;;;25.60;58.60;;;;;;5132842;27;19923;-60
2021/07/15 08:17:11;;;;;;;;;;;25.60;57.50;;;;;;5132981;27;20282;-57
2021/07/15 08:19:39;;;;;;;;;;;25.60;57.00;;;;;;5132429;27;19924;-59
2021/07/15 08:22:06;;;;;;;;;;;25.60;56.70;;;;;;5132006;27;19959;-60
2021/07/15 08:24:33;;;;;;;;;;;25.70;56.40;;;;;;5116981;27;19931;-59
2021/07/15 08:27:01;;;;;;;;;;;25.70;56.80;;;;;;5128260;27;20415;-54
2021/07/15 08:29:28;;;;;;;;;;;25.70;57.10;;;;;;5131517;27;20382;-58
2021/07/15 08:31:55;;;;;;;;;;;25.70;56.60;;;;;;5121379;27;19988;-57
2021/07/15 08:34:22;;;;;;;;;;;25.80;56.30;;;;;;5126669;27;19927;-60
2021/07/15 08:36:49;;;;;;;;;;;25.80;56.40;;;;;;5130535;27;19927;-59
2021/07/15 08:39:16;;;;;;;;;;;25.90;56.50;;;;;;5132675;27;20423;-61
2021/07/15 08:41:45;;;;;;;;;;;25.90;57.50;;;;;;5132668;27;19976;-59
2021/07/15 08:44:16;;;;;;;;;;;25.90;57.60;;;;;;5132555;27;20286;-60
2021/07/15 08:46:44;;;;;;;;;;;26.00;57.00;;;;;;5129977;27;19932;-55
2021/07/15 08:49:11;;;;;;;;;;;26.10;55.90;;;;;;5133645;27;20282;-59
2021/07/15 08:51:38;;;;;;;;;;;26.10;55.40;;;;;;5125377;27;19971;-62
2021/07/15 08:54:05;;;;;;;;;;;26.10;55.50;;;;;;5128082;27;19947;-60
2021/07/15 08:56:39;;;;;;;;;;;26.20;55.00;;;;;;5132262;27;19923;-62
2021/07/15 08:59:07;;;;;;;;;;;26.20;55.00;;;;;;5130201;27;19973;-63
2021/07/15 09:01:35;;;;;;;;;;;26.20;55.00;;;;;;5116419;28;19923;-60
2021/07/15 09:04:04;;;;;;;;;;;26.30;55.00;;;;;;5131774;27;20018;-61
2021/07/15 09:06:32;;;;;;;;;;;26.40;55.00;;;;;;5133023;27;19966;-60
2021/07/15 09:09:00;;;;;;;;;;;26.40;55.00;;;;;;5114470;27;20002;-61
2021/07/15 09:11:27;;;;;;;;;;;26.40;54.90;;;;;;5115902;28;19924;-63
2021/07/15 09:13:54;;;;;;;;;;;26.50;54.60;;;;;;5127326;28;19931;-63
2021/07/15 09:16:22;;;;;;;;;;;26.50;54.20;;;;;;5131797;28;20340;-61
2021/07/15 09:19:04;;;;;;;;;;;26.50;54.30;;;;;;5130943;28;20276;-62
2021/07/15 09:21:32;;;;;;;;;;;26.50;54.10;;;;;;5120815;28;20363;-59
2021/07/15 09:24:00;;;;;;;;;;;26.50;54.10;;;;;;5131005;28;19973;-59
2021/07/15 09:26:29;;;;;;;;;;;26.50;54.00;;;;;;5124149;28;20010;-56
2021/07/15 09:29:12;;;;;;;;;;;26.60;54.10;;;;;;5121265;28;19930;-58
2021/07/15 09:31:50;;;;;;;;;;;26.60;54.70;;;;;;5133349;27;19923;-59
2021/07/15 09:34:18;;;;;;;;;;;26.60;53.70;;;;;;5137509;27;19930;-56
2021/07/15 09:36:45;;;;;;;;;;;26.60;54.00;;;;;;5132410;27;19927;-59
2021/07/15 09:39:19;;;;;;;;;;;26.60;54.30;;;;;;5133652;27;19924;-59
2021/07/15 09:42:04;;;;;;;;;;;26.60;54.10;;;;;;5135830;27;19923;-60
2021/07/15 09:44:32;;;;;;;;;;;26.60;54.00;;;;;;5136026;27;19923;-60
2021/07/15 09:47:10;;;;;;;;;;;26.60;54.40;;;;;;5136296;27;19923;-62
2021/07/15 09:49:37;;;;;;;;;;;26.50;54.70;;;;;;5126522;27;20287;-62
2021/07/15 09:52:04;;;;;;;;;;;26.60;54.80;;;;;;5134406;27;19980;-62
2021/07/15 09:54:31;;;;;;;;;;;26.60;54.50;;;;;;5136967;27;20362;-60
2021/07/15 09:56:58;;;;;;;;;;;26.60;54.20;;;;;;5135545;27;20390;-58
2021/07/15 09:59:26;;;;;;;;;;;26.50;53.60;;;;;;5134362;27;20363;-60
2021/07/15 10:01:53;;;;;;;;;;;26.50;53.50;;;;;;5135253;27;19927;-56
2021/07/15 10:04:27;;;;;;;;;;;26.40;54.00;;;;;;5133307;27;19963;-60
2021/07/15 10:06:57;;;;;;;;;;;26.40;53.80;;;;;;5134689;27;19954;-61
2021/07/15 10:09:31;;;;;;;;;;;26.30;54.20;;;;;;5118064;27;19923;-57
2021/07/15 10:12:00;;;;;;;;;;;26.30;54.20;;;;;;5134113;27;19971;-59
2021/07/15 10:14:34;;;;;;;;;;;26.30;54.60;;;;;;5134450;27;19923;-62
2021/07/15 10:17:02;;;;;;;;;;;26.30;54.50;;;;;;5133761;27;20368;-59
2021/07/15 10:19:29;;;;;;;;;;;26.30;54.80;;;;;;5134283;27;19928;-57
2021/07/15 10:21:57;;;;;;;;;;;26.30;55.00;;;;;;5136602;27;19938;-60
2021/07/15 10:24:25;;;;;;;;;;;26.40;54.00;;;;;;5135694;27;20263;-60
2021/07/15 10:26:57;;;;;;;;;;;26.30;53.10;;;;;;5134006;27;19924;-60
2021/07/15 10:29:25;;;;;;;;;;;26.40;53.40;;;;;;5134355;27;20271;-60
2021/07/15 10:31:53;;;;;;;;;;;26.40;53.20;;;;;;5122013;27;20321;-61
2021/07/15 10:34:20;;;;;;;;;;;26.40;53.10;;;;;;5134049;27;19923;-63
2021/07/15 10:36:48;;;;;;;;;;;26.40;53.00;;;;;;5118712;27;20387;-62
2021/07/15 10:39:15;;;;;;;;;;;26.40;52.70;;;;;;5133302;27;19945;-61
2021/07/15 10:41:44;;;;;;;;;;;26.30;52.50;;;;;;5136324;27;19923;-60
2021/07/15 10:44:11;;;;;;;;;;;26.40;52.60;;;;;;5135083;27;20302;-60
2021/07/15 10:46:39;;;;;;;;;;;26.40;52.60;;;;;;5133310;27;19988;-60
2021/07/15 10:49:20;;;;;;;;;;;26.40;52.20;;;;;;5134839;27;19972;-60
2021/07/15 10:51:48;;;;;;;;;;;26.40;52.10;;;;;;5114171;27;20398;-60
2021/07/15 10:54:16;;;;;;;;;;;26.40;52.30;;;;;;5131995;27;20375;-60
2021/07/15 10:56:49;;;;;;;;;;;26.40;52.30;;;;;;5131837;27;20345;-56
2021/07/15 10:59:21;;;;;;;;;;;26.50;52.80;;;;;;5132032;27;19924;-60
2021/07/15 11:01:48;;;;;;;;;;;26.50;53.20;;;;;;5132170;27;19995;-67
2021/07/15 11:04:16;;;;;;;;;;;26.60;53.40;;;;;;5134683;27;20328;-67
2021/07/15 11:06:47;;;;;;;;;;;26.60;53.10;;;;;;5132925;27;19977;-66
2021/07/15 11:09:23;;;;;;;;;;;26.60;53.10;;;;;;5132755;27;19953;-67
2021/07/15 11:11:51;;;;;;;;;;;26.70;53.00;;;;;;5132939;27;19930;-67
2021/07/15 11:14:38;;;;;;;;;;;26.70;52.90;;;;;;5131329;27;19962;-67
2021/07/15 11:17:25;;;;;;;;;;;26.70;52.80;;;;;;5134555;27;19923;-68
2021/07/15 11:20:10;;;;;;;;;;;26.80;52.90;;;;;;5133054;27;19927;-67
2021/07/15 11:22:39;;;;;;;;;;;26.80;52.70;;;;;;5131749;27;19923;-66
2021/07/15 11:25:07;;;;;;;;;;;26.80;52.60;;;;;;5120990;27;19989;-67
2021/07/15 11:27:35;;;;;;;;;;;26.90;52.60;;;;;;5115680;27;20379;-66
2021/07/15 11:30:03;;;;;;;;;;;26.90;52.60;;;;;;5128793;27;19927;-66
2021/07/15 11:32:30;;;;;;;;;;;26.90;52.80;;;;;;5132749;27;20345;-67
2021/07/15 11:34:57;;;;;;;;;;;26.80;52.40;;;;;;5134195;27;20350;-66
2021/07/15 11:37:32;;;;;;;;;;;26.90;52.50;;;;;;5116816;27;19972;-66
2021/07/15 11:39:59;;;;;;;;;;;26.90;52.30;;;;;;5123036;27;19923;-67
2021/07/15 11:42:27;;;;;;;;;;;26.90;52.20;;;;;;5133324;27;19924;-67
2021/07/15 11:45:04;;;;;;;;;;;27.00;52.40;;;;;;5132150;27;19923;-67
2021/07/15 11:47:43;;;;;;;;;;;26.90;52.40;;;;;;5133412;27;19930;-67
2021/07/15 11:50:29;;;;;;;;;;;26.90;52.40;;;;;;5131165;27;19931;-67
2021/07/15 11:53:15;;;;;;;;;;;26.90;52.70;;;;;;5132142;27;19927;-67
2021/07/15 11:55:43;;;;;;;;;;;26.90;52.70;;;;;;5133307;27;19923;-67
2021/07/15 11:58:33;;;;;;;;;;;26.90;52.80;;;;;;5132312;27;20444;-67
2021/07/15 12:01:32;;;;;;;;;;;26.90;53.00;;;;;;5119175;27;19923;-68
2021/07/15 12:04:03;;;;;;;;;;;26.90;52.90;;;;;;5027560;28;19925;-68
2021/07/15 12:06:31;;;;;;;;;;;26.80;53.00;;;;;;5030261;28;19929;-67
2021/07/15 12:09:11;;;;;;;;;;;26.80;53.10;;;;;;5029199;28;19925;-66
2021/07/15 12:11:39;;;;;;;;;;;26.80;53.10;;;;;;5029659;28;19969;-67
2021/07/15 12:14:07;;;;;;;;;;;26.80;53.30;;;;;;5028936;28;19925;-67
2021/07/15 12:16:35;;;;;;;;;;;26.80;53.30;;;;;;5029980;28;19929;-66
2021/07/15 12:19:04;;;;;;;;;;;26.80;53.40;;;;;;5018248;28;20008;-67
2021/07/15 12:21:31;;;;;;;;;;;26.80;53.10;;;;;;5024345;28;19947;-66
2021/07/15 12:24:10;;;;;;;;;;;26.80;52.90;;;;;;5027206;28;19925;-67
2021/07/15 12:26:37;;;;;;;;;;;26.80;53.00;;;;;;5024237;28;19925;-67
2021/07/15 12:29:06;;;;;;;;;;;26.80;53.00;;;;;;5028282;28;19925;-67
2021/07/15 12:31:33;;;;;;;;;;;26.80;53.20;;;;;;5029851;28;19936;-66
2021/07/15 12:34:07;;;;;;;;;;;26.80;53.20;;;;;;5027379;28;20296;-67
2021/07/15 12:36:36;;;;;;;;;;;26.80;53.10;;;;;;5025748;28;20377;-66
2021/07/15 12:39:05;;;;;;;;;;;26.80;53.10;;;;;;5050498;28;19934;-66
2021/07/15 12:41:32;;;;;;;;;;;26.80;53.10;;;;;;5120259;27;19923;-66
2021/07/15 12:44:14;;;;;;;;;;;26.90;53.00;;;;;;5131616;27;20324;-66
2021/07/15 12:46:43;;;;;;;;;;;26.90;53.70;;;;;;5132572;27;19924;-66
2021/07/15 12:49:13;;;;;;;;;;;26.90;53.00;;;;;;5133632;27;19973;-67
2021/07/15 12:51:40;;;;;;;;;;;26.90;53.00;;;;;;5133549;27;19966;-66
2021/07/15 12:54:08;;;;;;;;;;;26.90;53.00;;;;;;5129982;27;19924;-67
2021/07/15 12:56:39;;;;;;;;;;;26.90;53.20;;;;;;5132490;27;19927;-66
2021/07/15 12:59:09;;;;;;;;;;;26.90;52.90;;;;;;5132484;27;19927;-67
2021/07/15 13:01:37;;;;;;;;;;;26.90;52.90;;;;;;5130900;27;19931;-66
2021/07/15 13:04:13;;;;;;;;;;;26.90;52.90;;;;;;5132367;27;19967;-66
2021/07/15 13:06:41;;;;;;;;;;;26.90;53.00;;;;;;5110920;28;19923;-66
2021/07/15 13:09:34;;;;;;;;;;;26.90;53.00;;;;;;5128933;27;19924;-67
2021/07/15 13:14:51;;;;;;;;;;;27.00;52.90;;;;;;5122575;28;19924;-67
2021/07/15 13:17:30;;;;;;;;;;;27.00;52.90;;;;;;5130876;28;19935;-67
2021/07/15 13:20:06;;;;;;;;;;;27.00;53.10;;;;;;5131725;28;20375;-66
2021/07/15 13:22:37;;;;;;;;;;;26.90;53.00;;;;;;5122750;28;19930;-67
2021/07/15 13:25:05;;;;;;;;;;;26.90;53.00;;;;;;5126784;28;19924;-66
2021/07/15 13:27:32;;;;;;;;;;;26.90;53.00;;;;;;5121394;28;19930;-66
2021/07/15 13:30:01;;;;;;;;;;;26.90;53.10;;;;;;5132108;28;19999;-66
2021/07/15 13:32:29;;;;;;;;;;;26.90;53.00;;;;;;5113742;28;19923;-66
2021/07/15 13:34:58;;;;;;;;;;;26.90;53.10;;;;;;5131440;28;19923;-67
2021/07/15 13:37:24;;;;;;;;;;;26.90;53.00;;;;;;5114955;28;19924;-68
2021/07/15 13:39:52;;;;;;;;;;;26.90;53.10;;;;;;5133108;28;20426;-66
2021/07/15 13:42:20;;;;;;;;;;;26.90;53.10;;;;;;5130660;28;20452;-67
2021/07/15 13:44:54;;;;;;;;;;;26.80;53.10;;;;;;5115231;28;19931;-66
2021/07/15 13:47:23;;;;;;;;;;;26.80;53.20;;;;;;5113788;28;20416;-66
2021/07/15 13:49:54;;;;;;;;;;;26.80;53.20;;;;;;5130863;28;19923;-67
2021/07/15 13:52:24;;;;;;;;;;;26.80;53.40;;;;;;5131912;28;19923;-66
2021/07/15 13:54:51;;;;;;;;;;;26.80;53.40;;;;;;5131980;28;19924;-66
2021/07/15 13:57:18;;;;;;;;;;;26.80;53.50;;;;;;5132866;28;19924;-67
2021/07/15 13:59:46;;;;;;;;;;;26.80;53.70;;;;;;5131185;28;20087;-66
2021/07/15 14:02:14;;;;;;;;;;;26.80;53.80;;;;;;5131613;28;19923;-66
2021/07/15 14:04:42;;;;;;;;;;;26.80;53.80;;;;;;5132051;28;20025;-66
2021/07/15 14:07:11;;;;;;;;;;;26.80;53.80;;;;;;5131567;28;20362;-66
2021/07/15 14:09:40;;;;;;;;;;;26.70;53.90;;;;;;5129246;28;19923;-66
2021/07/15 14:12:09;;;;;;;;;;;26.70;53.90;;;;;;5130705;28;19923;-66
2021/07/15 14:14:37;;;;;;;;;;;26.70;54.00;;;;;;5130680;28;19935;-67
2021/07/15 14:17:04;;;;;;;;;;;26.70;54.10;;;;;;5130410;28;19930;-66
2021/07/15 14:19:31;;;;;;;;;;;26.60;54.10;;;;;;5132191;27;19923;-66
2021/07/15 14:21:59;;;;;;;;;;;26.60;54.30;;;;;;5118585;27;19924;-66
2021/07/15 14:24:27;;;;;;;;;;;26.60;54.40;;;;;;5108341;28;19940;-66
2021/07/15 14:26:56;;;;;;;;;;;26.60;54.60;;;;;;5117398;27;20294;-65
2021/07/15 14:29:25;;;;;;;;;;;26.60;54.90;;;;;;5118598;27;19924;-66
2021/07/15 14:31:52;;;;;;;;;;;26.60;55.00;;;;;;5123555;27;19923;-65